createdAt,value
2018-09-25T00:00:54.706Z,100305.97
2018-09-25T00:03:28.516Z,100313.47
2018-09-25T00:06:02.377Z,100313.47
2018-09-25T00:08:36.250Z,100312.14
2018-09-25T00:11:09.821Z,100313.94
2018-09-25T00:13:43.749Z,100316.20
2018-09-25T00:16:17.622Z,100312.03
2018-09-25T00:18:51.598Z,100314.69
2018-09-25T00:21:25.610Z,100310.44
2018-09-25T00:23:59.509Z,100321.70
2018-09-25T00:26:33.301Z,100323.59
2018-09-25T00:29:07.184Z,100315.81
2018-09-25T00:31:40.983Z,100314.69
2018-09-25T00:34:14.846Z,100319.14
2018-09-25T00:36:48.744Z,100317.14
2018-09-25T00:39:22.440Z,100315.55
2018-09-25T00:41:56.262Z,100315.31
2018-09-25T00:44:30.150Z,100313.95
2018-09-25T00:47:03.861Z,100312.73
2018-09-25T00:49:37.569Z,100315.94
2018-09-25T00:52:11.446Z,100318.33
2018-09-25T00:54:45.098Z,100320.05
2018-09-25T00:57:19.121Z,100321.25
2018-09-25T00:59:53.131Z,100326.06
2018-09-25T01:02:26.762Z,100323.98
2018-09-25T01:05:00.701Z,100319.45
2018-09-25T01:07:34.494Z,100324.50
2018-09-25T01:10:08.501Z,100320.44
2018-09-25T01:12:42.178Z,100321.69
2018-09-25T01:15:16.170Z,100316.84
2018-09-25T01:17:50.020Z,100319.15
2018-09-25T01:20:23.822Z,100328.78
2018-09-25T01:22:57.667Z,100321.48
2018-09-25T01:25:31.369Z,100325.70
2018-09-25T01:28:05.161Z,100314.52
2018-09-25T01:30:38.882Z,100318.05
2018-09-25T01:33:12.790Z,100316.80
2018-09-25T01:35:46.557Z,100312.63
2018-09-25T01:38:20.179Z,100304.05
2018-09-25T01:40:54.141Z,100311.77
2018-09-25T01:43:28.116Z,100312.23
2018-09-25T01:46:01.974Z,100318.05
2018-09-25T01:48:35.637Z,100322.34
2018-09-25T01:51:09.302Z,100333.08
2018-09-25T01:53:43.118Z,100325.30
2018-09-25T01:56:16.742Z,100328.13
2018-09-25T01:58:50.378Z,100324.78
2018-09-25T02:01:24.245Z,100322.91
2018-09-25T02:03:58.125Z,100330.70
2018-09-25T02:06:31.827Z,100328.66
2018-09-25T02:09:05.589Z,100333.22
2018-09-25T02:11:39.454Z,100330.70
2018-09-25T02:14:13.407Z,100323.78
2018-09-25T02:16:47.290Z,100336.59
2018-09-25T02:19:20.962Z,100332.86
2018-09-25T02:21:54.695Z,100332.04
2018-09-25T02:24:28.662Z,100320.20
2018-09-25T02:27:02.472Z,100319.59
2018-09-25T02:29:36.302Z,100321.11
2018-09-25T02:32:10.105Z,100319.56
2018-09-25T02:34:43.932Z,100315.69
2018-09-25T02:37:17.835Z,100318.81
2018-09-25T02:39:51.634Z,100319.27
2018-09-25T02:42:30.042Z,100318.20
2018-09-25T02:45:03.789Z,100318.06
2018-09-25T02:47:38.551Z,100314.37
2018-09-25T02:50:12.345Z,100315.19
2018-09-25T02:52:46.054Z,100319.13
2018-09-25T02:55:19.799Z,100309.48
2018-09-25T02:57:53.561Z,100314.11
2018-09-25T03:00:28.329Z,100317.55
2018-09-25T03:03:05.714Z,100323.13
2018-09-25T03:05:40.408Z,100322.41
2018-09-25T03:08:15.419Z,100320.33
2018-09-25T03:10:49.179Z,100315.75
2018-09-25T03:13:22.748Z,100330.09
2018-09-25T03:15:56.552Z,100323.11
2018-09-25T03:18:30.312Z,100319.48
2018-09-25T03:21:03.998Z,100314.66
2018-09-25T03:23:37.722Z,100321.06
2018-09-25T03:26:12.642Z,100327.13
2018-09-25T03:28:46.448Z,100320.20
2018-09-25T03:31:20.146Z,100323.85
2018-09-25T03:33:53.963Z,100326.23
2018-09-25T03:36:27.762Z,100324.41
2018-09-25T03:39:01.694Z,100325.41
2018-09-25T03:41:35.494Z,100324.52
2018-09-25T03:44:09.477Z,100323.12
2018-09-25T03:46:43.325Z,100315.17
2018-09-25T03:49:17.034Z,100313.91
2018-09-25T03:51:50.893Z,100315.77
2018-09-25T03:54:24.708Z,100313.18
2018-09-25T03:56:58.534Z,100310.23
2018-09-25T03:59:32.729Z,100311.98
2018-09-25T04:02:06.753Z,100310.82
2018-09-25T04:04:40.582Z,100306.55
2018-09-25T04:07:14.518Z,100312.31
2018-09-25T04:09:48.508Z,100311.61
2018-09-25T04:12:22.218Z,100300.64
2018-09-25T04:14:56.651Z,100293.41
2018-09-25T04:17:30.445Z,100294.43
2018-09-25T04:20:04.339Z,100290.46
2018-09-25T04:22:38.054Z,100290.95
2018-09-25T04:25:11.928Z,100287.59
2018-09-25T04:27:45.591Z,100287.52
2018-09-25T04:30:19.501Z,100292.60
2018-09-25T04:32:53.146Z,100292.97
2018-09-25T04:35:27.016Z,100289.95
2018-09-25T04:38:00.603Z,100295.38
2018-09-25T04:40:34.473Z,100297.86
2018-09-25T04:43:08.398Z,100293.03
2018-09-25T04:45:42.193Z,100297.63
2018-09-25T04:48:16.044Z,100294.61
2018-09-25T04:50:50.064Z,100295.47
2018-09-25T04:53:24.024Z,100288.94
2018-09-25T04:55:57.932Z,100288.17
2018-09-25T04:58:31.678Z,100291.41
2018-09-25T05:01:05.438Z,100291.84
2018-09-25T05:03:39.128Z,100292.38
2018-09-25T05:06:12.825Z,100296.70
2018-09-25T05:08:46.797Z,100299.05
2018-09-25T05:11:20.611Z,100300.38
2018-09-25T05:13:54.578Z,100304.34
2018-09-25T05:16:28.386Z,100310.91
2018-09-25T05:19:02.121Z,100305.02
2018-09-25T05:21:35.937Z,100305.64
2018-09-25T05:24:09.686Z,100310.19
2018-09-25T05:26:43.295Z,100309.21
2018-09-25T05:29:17.061Z,100311.55
2018-09-25T05:31:50.854Z,100314.20
2018-09-25T05:34:24.569Z,100318.17
2018-09-25T05:36:58.393Z,100324.48
2018-09-25T05:39:32.229Z,100326.17
2018-09-25T05:42:05.869Z,100335.81
2018-09-25T05:44:39.760Z,100339.23
2018-09-25T05:47:13.809Z,100338.83
2018-09-25T05:49:47.631Z,100343.14
2018-09-25T05:52:21.576Z,100352.93
2018-09-25T05:54:55.225Z,100351.68
2018-09-25T05:57:29.061Z,100354.17
2018-09-25T06:00:02.730Z,100356.42
2018-09-25T06:02:36.502Z,100362.45
2018-09-25T06:05:10.363Z,100366.03
2018-09-25T06:07:44.145Z,100368.12
2018-09-25T06:10:17.911Z,100369.52
2018-09-25T06:12:51.774Z,100374.95
2018-09-25T06:15:25.379Z,100386.88
2018-09-25T06:17:59.242Z,100383.13
2018-09-25T06:20:33.235Z,100387.17
2018-09-25T06:23:07.027Z,100383.05
2018-09-25T06:25:40.748Z,100386.36
2018-09-25T06:28:14.749Z,100379.19
2018-09-25T06:30:48.619Z,100385.69
2018-09-25T06:33:22.180Z,100383.18
2018-09-25T06:35:55.974Z,100381.56
2018-09-25T06:38:29.940Z,100386.55
2018-09-25T06:41:03.787Z,100386.76
2018-09-25T06:43:37.849Z,100380.72
2018-09-25T06:46:11.718Z,100380.97
2018-09-25T06:48:45.414Z,100381.09
2018-09-25T06:51:19.105Z,100379.70
2018-09-25T06:53:52.827Z,100381.58
2018-09-25T06:56:26.806Z,100383.84
2018-09-25T06:59:00.738Z,100383.91
2018-09-25T07:01:34.426Z,100385.71
2018-09-25T07:04:08.354Z,100388.34
2018-09-25T07:06:42.392Z,100388.84
2018-09-25T07:09:16.789Z,100381.81
2018-09-25T07:11:50.533Z,100386.98
2018-09-25T07:14:24.487Z,100390.23
2018-09-25T07:16:58.397Z,100389.67
2018-09-25T07:19:32.238Z,100391.52
2018-09-25T07:22:06.230Z,100400.10
2018-09-25T07:24:39.967Z,100402.20
2018-09-25T07:27:14.523Z,100405.80
2018-09-25T07:29:48.384Z,100399.48
2018-09-25T07:32:22.241Z,100398.96
2018-09-25T07:34:56.043Z,100402.94
2018-09-25T07:37:29.989Z,100402.01
2018-09-25T07:40:03.944Z,100400.03
2018-09-25T07:42:37.885Z,100407.56
2018-09-25T07:45:11.751Z,100402.32
2018-09-25T07:47:45.699Z,100396.91
2018-09-25T07:50:19.586Z,100400.41
2018-09-25T07:52:53.197Z,100400.25
2018-09-25T07:55:27.169Z,100402.23
2018-09-25T07:58:00.701Z,100399.00
2018-09-25T08:00:34.641Z,100408.70
2018-09-25T08:03:08.638Z,100399.75
2018-09-25T08:05:42.479Z,100395.83
2018-09-25T08:08:16.429Z,100395.39
2018-09-25T08:10:50.567Z,100399.14
2018-09-25T08:13:24.245Z,100398.66
2018-09-25T08:15:58.156Z,100395.69
2018-09-25T08:18:31.890Z,100390.36
2018-09-25T08:21:05.729Z,100396.06
2018-09-25T08:23:39.486Z,100389.55
2018-09-25T08:26:13.178Z,100388.02
2018-09-25T08:28:46.951Z,100382.73
2018-09-25T08:31:20.936Z,100383.37
2018-09-25T08:33:54.733Z,100378.81
2018-09-25T08:36:28.409Z,100370.94
2018-09-25T08:39:02.311Z,100373.09
2018-09-25T08:41:36.046Z,100370.67
2018-09-25T08:44:09.833Z,100372.70
2018-09-25T08:46:43.641Z,100379.61
2018-09-25T08:49:17.250Z,100376.36
2018-09-25T08:51:51.175Z,100376.64
2018-09-25T08:54:24.745Z,100375.26
2018-09-25T08:56:58.585Z,100369.89
2018-09-25T08:59:32.306Z,100376.72
2018-09-25T09:02:06.121Z,100375.86
2018-09-25T09:04:40.072Z,100379.45
2018-09-25T09:07:20.682Z,100382.97
2018-09-25T09:09:54.443Z,100386.81
2018-09-25T09:12:28.221Z,100384.02
2018-09-25T09:15:02.134Z,100383.89
2018-09-25T09:17:35.903Z,100376.95
2018-09-25T09:20:09.738Z,100371.81
2018-09-25T09:22:43.641Z,100368.09
2018-09-25T09:25:17.454Z,100364.15
2018-09-25T09:27:51.349Z,100362.48
2018-09-25T09:30:25.146Z,100359.44
2018-09-25T09:32:58.867Z,100345.92
2018-09-25T09:35:32.789Z,100342.45
2018-09-25T09:38:06.603Z,100339.22
2018-09-25T09:40:40.536Z,100339.23
2018-09-25T09:43:14.531Z,100344.73
2018-09-25T09:45:48.556Z,100347.66
2018-09-25T09:48:22.181Z,100355.59
2018-09-25T09:50:55.973Z,100362.78
2018-09-25T09:53:29.798Z,100352.29
2018-09-25T09:56:03.738Z,100349.31
2018-09-25T09:58:37.325Z,100349.14
2018-09-25T10:01:11.085Z,100347.99
2018-09-25T10:03:45.453Z,100346.10
2018-09-25T10:06:19.251Z,100352.55
2018-09-25T10:08:52.962Z,100352.69
2018-09-25T10:11:26.809Z,100361.59
2018-09-25T10:14:00.540Z,100361.29
2018-09-25T10:16:34.338Z,100358.03
2018-09-25T10:19:08.320Z,100354.65
2018-09-25T10:21:42.273Z,100357.21
2018-09-25T10:24:16.189Z,100347.95
2018-09-25T10:26:49.877Z,100357.12
2018-09-25T10:29:23.789Z,100351.55
2018-09-25T10:31:57.586Z,100346.25
2018-09-25T10:34:31.402Z,100342.33
2018-09-25T10:37:05.247Z,100344.38
2018-09-25T10:39:39.086Z,100328.48
2018-09-25T10:42:12.978Z,100332.99
2018-09-25T10:44:46.769Z,100341.64
2018-09-25T10:47:20.579Z,100343.97
2018-09-25T10:49:54.674Z,100328.52
2018-09-25T10:52:28.386Z,100342.52
2018-09-25T10:55:02.183Z,100330.70
2018-09-25T10:57:35.851Z,100323.34
2018-09-25T11:00:09.713Z,100323.67
2018-09-25T11:02:43.333Z,100320.45
2018-09-25T11:05:17.044Z,100319.66
2018-09-25T11:07:51.025Z,100328.21
2018-09-25T11:10:24.732Z,100334.20
2018-09-25T11:12:58.617Z,100330.67
2018-09-25T11:15:32.498Z,100318.94
2018-09-25T11:18:06.129Z,100328.55
2018-09-25T11:20:39.965Z,100324.42
2018-09-25T11:23:13.714Z,100317.17
2018-09-25T11:25:47.414Z,100318.05
2018-09-25T11:28:21.154Z,100318.12
2018-09-25T11:30:55.009Z,100311.23
2018-09-25T11:33:28.899Z,100308.75
2018-09-25T11:36:02.845Z,100307.34
2018-09-25T11:38:36.716Z,100307.48
2018-09-25T11:41:10.474Z,100306.16
2018-09-25T11:43:44.251Z,100307.38
2018-09-25T11:46:18.066Z,100305.11
2018-09-25T11:48:51.832Z,100300.91
2018-09-25T11:51:25.583Z,100297.95
2018-09-25T11:53:59.491Z,100300.42
2018-09-25T11:56:33.250Z,100279.38
2018-09-25T11:59:07.210Z,100294.94
2018-09-25T12:01:41.111Z,100287.73
2018-09-25T12:04:14.897Z,100287.91
2018-09-25T12:06:48.655Z,100285.48
2018-09-25T12:09:22.445Z,100273.45
2018-09-25T12:11:56.030Z,100272.56
2018-09-25T12:14:29.870Z,100281.45
2018-09-25T12:17:03.705Z,100267.28
2018-09-25T12:19:37.708Z,100275.48
2018-09-25T12:22:11.668Z,100277.58
2018-09-25T12:24:45.675Z,100268.22
2018-09-25T12:27:19.378Z,100266.27
2018-09-25T12:29:52.937Z,100259.12
2018-09-25T12:32:26.668Z,100258.04
2018-09-25T12:35:00.306Z,100260.81
2018-09-25T12:37:34.209Z,100257.58
2018-09-25T12:40:08.056Z,100256.84
2018-09-25T12:42:41.862Z,100256.79
2018-09-25T12:45:15.794Z,100254.82
2018-09-25T12:47:49.636Z,100256.62
2018-09-25T12:50:23.555Z,100252.45
2018-09-25T12:52:57.290Z,100235.39
2018-09-25T12:55:30.907Z,100239.36
2018-09-25T12:58:04.723Z,100237.11
2018-09-25T13:00:38.625Z,100235.22
2018-09-25T13:03:12.760Z,100228.69
2018-09-25T13:05:46.539Z,100226.17
2018-09-25T13:08:20.350Z,100221.97
2018-09-25T13:10:54.345Z,100227.84
2018-09-25T13:13:27.924Z,100226.29
2018-09-25T13:16:01.686Z,100222.28
2018-09-25T13:18:35.720Z,100218.44
2018-09-25T13:21:09.704Z,100219.48
2018-09-25T13:23:43.716Z,100215.49
2018-09-25T13:26:17.570Z,100217.83
2018-09-25T13:28:51.313Z,100207.41
2018-09-25T13:31:25.036Z,100206.12
2018-09-25T13:33:58.817Z,100207.06
2018-09-25T13:36:32.718Z,100205.41
2018-09-25T13:39:06.503Z,100215.95
2018-09-25T13:41:40.337Z,100203.94
2018-09-25T13:44:14.234Z,100199.99
2018-09-25T13:46:47.949Z,100198.80
2018-09-25T13:49:21.885Z,100200.46
2018-09-25T13:51:55.737Z,100200.34
2018-09-25T13:54:29.545Z,100191.56
2018-09-25T13:57:03.385Z,100199.92
2018-09-25T13:59:37.273Z,100195.48
2018-09-25T14:02:11.054Z,100190.94
2018-09-25T14:04:44.793Z,100191.75
2018-09-25T14:07:18.604Z,100184.41
2018-09-25T14:09:52.195Z,100191.84
2018-09-25T14:12:26.110Z,100184.33
2018-09-25T14:14:59.856Z,100184.58
2018-09-25T14:17:33.781Z,100181.97
2018-09-25T14:20:07.735Z,100180.45
2018-09-25T14:22:41.725Z,100171.88
2018-09-25T14:25:15.964Z,100168.12
2018-09-25T14:27:49.884Z,100160.87
2018-09-25T14:30:23.681Z,100154.90
2018-09-25T14:32:57.313Z,100159.31
2018-09-25T14:35:31.202Z,100162.98
2018-09-25T14:38:05.080Z,100160.30
2018-09-25T14:40:38.916Z,100151.86
2018-09-25T14:43:12.840Z,100153.45
2018-09-25T14:45:46.646Z,100155.91
2018-09-25T14:48:20.316Z,100151.95
2018-09-25T14:50:54.250Z,100148.34
2018-09-25T14:53:28.101Z,100153.33
2018-09-25T14:56:01.865Z,100150.69
2018-09-25T14:58:35.751Z,100152.77
2018-09-25T15:01:09.602Z,100156.02
2018-09-25T15:03:44.570Z,100154.71
2018-09-25T15:06:18.428Z,100162.13
2018-09-25T15:08:52.313Z,100148.05
2018-09-25T15:11:26.070Z,100154.95
2018-09-25T15:13:59.764Z,100158.70
2018-09-25T15:16:33.575Z,100148.86
2018-09-25T15:19:07.338Z,100156.83
2018-09-25T15:21:41.420Z,100161.10
2018-09-25T15:24:15.425Z,100153.55
2018-09-25T15:26:49.432Z,100152.59
2018-09-25T15:29:22.994Z,100144.03
2018-09-25T15:31:56.857Z,100140.49
2018-09-25T15:34:30.525Z,100147.87
2018-09-25T15:37:04.337Z,100142.37
2018-09-25T15:39:38.054Z,100143.39
2018-09-25T15:42:12.023Z,100139.28
2018-09-25T15:44:49.045Z,100138.55
2018-09-25T15:47:23.580Z,100135.06
2018-09-25T15:49:57.270Z,100135.78
2018-09-25T15:52:31.044Z,100134.13
2018-09-25T15:55:06.358Z,100143.64
2018-09-25T15:57:42.520Z,100140.84
2018-09-25T16:00:16.602Z,100136.76
2018-09-25T16:02:50.704Z,100137.89
2018-09-25T16:05:24.365Z,100125.03
2018-09-25T16:07:58.337Z,100117.21
2018-09-25T16:10:32.250Z,100121.16
2018-09-25T16:13:05.862Z,100114.73
2018-09-25T16:15:39.642Z,100126.19
2018-09-25T16:18:13.470Z,100131.03
2018-09-25T16:20:47.465Z,100126.97
2018-09-25T16:23:21.177Z,100128.55
2018-09-25T16:25:55.027Z,100135.39
2018-09-25T16:28:28.840Z,100141.19
2018-09-25T16:31:02.533Z,100142.83
2018-09-25T16:33:36.339Z,100144.95
2018-09-25T16:36:10.190Z,100150.27
2018-09-25T16:38:43.902Z,100149.66
2018-09-25T16:41:17.729Z,100149.77
2018-09-25T16:43:51.618Z,100157.63
2018-09-25T16:46:25.690Z,100160.45
2018-09-25T16:48:59.573Z,100164.31
2018-09-25T16:51:33.214Z,100161.42
2018-09-25T16:54:07.289Z,100162.30
2018-09-25T16:56:41.046Z,100165.68
2018-09-25T16:59:15.158Z,100159.26
2018-09-25T17:01:49.007Z,100159.43
2018-09-25T17:04:23.061Z,100162.34
2018-09-25T17:06:56.683Z,100166.22
2018-09-25T17:09:30.620Z,100159.59
2018-09-25T17:12:04.430Z,100157.33
2018-09-25T17:14:38.133Z,100164.86
2018-09-25T17:17:12.003Z,100166.47
2018-09-25T17:19:45.710Z,100165.95
2018-09-25T17:22:19.533Z,100180.77
2018-09-25T17:24:53.368Z,100180.57
2018-09-25T17:27:27.156Z,100173.31
2018-09-25T17:30:01.024Z,100171.07
2018-09-25T17:32:34.522Z,100169.45
2018-09-25T17:35:08.626Z,100167.59
2018-09-25T17:37:42.708Z,100175.65
2018-09-25T17:40:16.605Z,100179.00
2018-09-25T17:42:50.612Z,100180.73
2018-09-25T17:45:24.589Z,100171.94
2018-09-25T17:47:58.289Z,100178.73
2018-09-25T17:50:32.098Z,100174.56
2018-09-25T17:53:05.925Z,100179.69
2018-09-25T17:55:40.019Z,100177.57
2018-09-25T17:58:13.956Z,100182.11
2018-09-25T18:00:47.795Z,100177.52
2018-09-25T18:03:21.638Z,100180.75
2018-09-25T18:05:55.341Z,100180.13
2018-09-25T18:08:29.226Z,100176.42
2018-09-25T18:11:03.373Z,100178.61
2018-09-25T18:13:37.321Z,100187.48
2018-09-25T18:16:11.393Z,100191.30
2018-09-25T18:18:45.298Z,100198.06
2018-09-25T18:21:19.116Z,100197.60
2018-09-25T18:23:53.171Z,100194.92
2018-09-25T18:26:26.958Z,100186.86
2018-09-25T18:29:00.950Z,100195.72
2018-09-25T18:31:34.928Z,100195.70
2018-09-25T18:34:08.907Z,100194.81
2018-09-25T18:36:42.943Z,100190.94
2018-09-25T18:39:16.890Z,100201.17
2018-09-25T18:41:50.841Z,100210.30
2018-09-25T18:44:24.623Z,100206.05
2018-09-25T18:46:58.310Z,100218.23
2018-09-25T18:49:32.243Z,100208.97
2018-09-25T18:52:06.314Z,100214.21
2018-09-25T18:54:40.229Z,100216.20
2018-09-25T18:57:13.997Z,100219.39
2018-09-25T18:59:47.997Z,100219.80
2018-09-25T19:02:21.618Z,100222.01
2018-09-25T19:04:55.407Z,100222.09
2018-09-25T19:07:29.322Z,100222.69
2018-09-25T19:10:03.220Z,100225.87
2018-09-25T19:12:37.150Z,100222.33
2018-09-25T19:15:10.959Z,100221.75
2018-09-25T19:17:44.747Z,100223.10
2018-09-25T19:20:19.135Z,100220.98
2018-09-25T19:22:52.974Z,100227.12
2018-09-25T19:25:26.955Z,100227.89
2018-09-25T19:28:00.664Z,100230.92
2018-09-25T19:30:34.642Z,100237.05
2018-09-25T19:33:08.754Z,100238.92
2018-09-25T19:35:42.720Z,100231.72
2018-09-25T19:38:19.736Z,100228.84
2018-09-25T19:40:53.441Z,100238.22
2018-09-25T19:43:27.330Z,100233.35
2018-09-25T19:46:01.194Z,100238.78
2018-09-25T19:48:34.924Z,100246.84
2018-09-25T19:51:08.855Z,100251.78
2018-09-25T19:53:42.594Z,100256.48
2018-09-25T19:56:16.552Z,100264.37
2018-09-25T19:58:50.499Z,100265.69
2018-09-25T20:01:24.296Z,100270.75
2018-09-25T20:03:58.117Z,100266.34
2018-09-25T20:06:31.918Z,100263.73
2018-09-25T20:09:05.694Z,100264.61
2018-09-25T20:11:39.393Z,100265.50
2018-09-25T20:14:13.259Z,100258.38
2018-09-25T20:16:47.076Z,100256.87
2018-09-25T20:19:20.950Z,100262.98
2018-09-25T20:21:54.602Z,100265.30
2018-09-25T20:24:28.473Z,100272.81
2018-09-25T20:27:02.516Z,100267.16
2018-09-25T20:29:36.743Z,100267.22
2018-09-25T20:32:10.541Z,100271.72
2018-09-25T20:34:44.337Z,100274.97
2018-09-25T20:37:18.018Z,100273.43
2018-09-25T20:39:51.911Z,100275.58
2018-09-25T20:42:25.547Z,100278.23
2018-09-25T20:44:59.168Z,100279.31
2018-09-25T20:47:33.010Z,100276.61
2018-09-25T20:50:06.886Z,100287.27
2018-09-25T20:52:40.578Z,100291.65
2018-09-25T20:55:14.418Z,100293.06
2018-09-25T20:57:48.430Z,100287.11
2018-09-25T21:00:22.306Z,100285.59
2018-09-25T21:02:56.079Z,100297.45
2018-09-25T21:05:30.175Z,100292.13
2018-09-25T21:08:03.799Z,100282.84
2018-09-25T21:10:37.445Z,100286.37
2018-09-25T21:13:11.129Z,100283.53
2018-09-25T21:15:44.977Z,100285.44
2018-09-25T21:18:18.834Z,100288.28
2018-09-25T21:20:52.740Z,100287.25
2018-09-25T21:23:26.562Z,100288.43
2018-09-25T21:26:00.485Z,100285.98
2018-09-25T21:28:34.285Z,100276.80
2018-09-25T21:31:08.213Z,100281.56
2018-09-25T21:33:42.106Z,100279.16
2018-09-25T21:36:16.131Z,100281.66
2018-09-25T21:38:49.823Z,100282.36
2018-09-25T21:41:23.742Z,100277.44
2018-09-25T21:43:57.435Z,100277.43
2018-09-25T21:46:31.138Z,100276.00
2018-09-25T21:49:04.767Z,100262.25
2018-09-25T21:51:38.832Z,100274.13
2018-09-25T21:54:12.706Z,100270.34
2018-09-25T21:56:46.455Z,100276.08
2018-09-25T21:59:20.225Z,100270.59
2018-09-25T22:01:54.288Z,100279.28
2018-09-25T22:04:28.099Z,100289.95
2018-09-25T22:07:01.902Z,100282.27
2018-09-25T22:09:35.569Z,100288.09
2018-09-25T22:12:09.355Z,100288.44
2018-09-25T22:14:43.295Z,100283.73
2018-09-25T22:17:17.222Z,100281.64
2018-09-25T22:19:51.314Z,100281.02
2018-09-25T22:22:25.345Z,100282.83
2018-09-25T22:24:59.043Z,100279.77
2018-09-25T22:27:32.841Z,100288.95
2018-09-25T22:30:06.761Z,100284.72
2018-09-25T22:32:40.670Z,100290.56
2018-09-25T22:35:14.550Z,100293.95
2018-09-25T22:37:48.402Z,100293.25
2018-09-25T22:40:22.354Z,100288.13
2018-09-25T22:42:56.294Z,100288.85
2018-09-25T22:45:29.998Z,100287.94
2018-09-25T22:48:03.865Z,100284.61
2018-09-25T22:50:37.594Z,100289.66
2018-09-25T22:53:11.292Z,100292.08
2018-09-25T22:55:45.078Z,100294.13
2018-09-25T22:58:18.838Z,100299.12
2018-09-25T23:00:52.643Z,100295.64
2018-09-25T23:03:26.370Z,100292.05
2018-09-25T23:06:00.221Z,100285.66
2018-09-25T23:08:34.030Z,100278.59
2018-09-25T23:11:07.821Z,100284.11
2018-09-25T23:13:41.609Z,100283.85
2018-09-25T23:16:15.606Z,100281.24
2018-09-25T23:18:49.447Z,100278.45
2018-09-25T23:21:23.213Z,100281.73
2018-09-25T23:23:57.026Z,100275.27
2018-09-25T23:26:30.674Z,100275.97
2018-09-25T23:29:04.381Z,100269.53
2018-09-25T23:31:38.346Z,100269.80
2018-09-25T23:34:12.364Z,100269.55
2018-09-25T23:36:46.345Z,100269.55
2018-09-25T23:39:20.044Z,100260.89
2018-09-25T23:41:51.489Z,100264.61
2018-09-25T23:44:45.215Z,100265.00
2018-09-25T23:47:22.010Z,100266.32
2018-09-25T23:49:55.578Z,100256.89
2018-09-25T23:52:30.745Z,100246.09
2018-09-25T23:55:39.497Z,100246.92
2018-09-25T23:58:47.182Z,100238.87
